Hooppole, Illinois
Current Conditions -  °F | °C
As of 3:55 PM on Monday 22 Dec 2014 (Local Time) from KSQI Reporting Station
Overcast Overcast  
Wind Chill: 30°   Ceiling: 500
Heat Index: 37°   Visibility: 3mi
Dew Point: 34°   Wind: 10mph
Humidity: 87%   Direction: 120°ESE
Pressure: 29.61"   Gusts: NA
Location:  41.52°N, 89.91°W
Report Text: KSQI 222155Z 12009KT 3SM OVC005 03/01 A2961 RMK AO1
Loading
Personal Weather Stations






























Interactive Weather Map New forecast layout! Learn more

10-Day Weather Forecast

Advertisements
Track Severe Weather on mobile